createdAt,value
2018-04-10T00:01:58.992Z,8.93
2018-04-10T00:04:27.220Z,9.53
2018-04-10T00:06:54.667Z,8.27
2018-04-10T00:09:22.166Z,11.50
2018-04-10T00:11:49.576Z,10.03
2018-04-10T00:14:17.806Z,9.67
2018-04-10T00:16:45.256Z,10.30
2018-04-10T00:19:12.711Z,10.03
2018-04-10T00:21:40.160Z,9.07
2018-04-10T00:24:07.624Z,9.33
2018-04-10T00:29:09.069Z,9.03
2018-04-10T00:31:36.512Z,8.80
2018-04-10T00:34:03.988Z,8.87
2018-04-10T00:36:31.436Z,10.43
2018-04-10T00:38:59.655Z,9.30
2018-04-10T00:41:27.104Z,9.90
2018-04-10T00:43:54.563Z,8.07
2018-04-10T00:46:22.775Z,10.40
2018-04-10T00:48:50.237Z,10.63
2018-04-10T00:51:17.679Z,9.73
2018-04-10T00:53:45.917Z,10.93
2018-04-10T00:56:13.381Z,11.37
2018-04-10T00:58:40.844Z,10.23
2018-04-10T01:01:08.291Z,10.27
2018-04-10T01:03:36.504Z,9.13
2018-04-10T01:06:03.964Z,8.47
2018-04-10T01:08:31.432Z,10.20
2018-04-10T01:10:58.888Z,9.07
2018-04-10T01:13:26.336Z,9.13
2018-04-10T01:15:54.569Z,12.10
2018-04-10T01:18:22.017Z,9.13
2018-04-10T01:20:49.475Z,12.60
2018-04-10T01:23:16.923Z,14.27
2018-04-10T01:25:45.152Z,10.33
2018-04-10T01:28:12.600Z,9.20
2018-04-10T01:30:40.069Z,12.00
2018-04-10T01:33:07.516Z,12.10
2018-04-10T01:35:35.747Z,10.47
2018-04-10T01:38:03.192Z,10.77
2018-04-10T01:40:30.639Z,13.50
2018-04-10T01:42:58.872Z,12.20
2018-04-10T01:45:26.326Z,13.13
2018-04-10T01:47:53.817Z,14.27
2018-04-10T01:50:21.269Z,13.60
2018-04-10T01:52:48.723Z,11.33
2018-04-10T01:55:16.181Z,13.37
2018-04-10T01:57:44.414Z,12.80
2018-04-10T02:00:11.863Z,13.50
2018-04-10T02:02:39.324Z,9.27
2018-04-10T02:05:06.779Z,10.77
2018-04-10T02:07:35.011Z,12.53
2018-04-10T02:10:02.473Z,12.40
2018-04-10T02:12:30.000Z,10.17
2018-04-10T02:14:58.212Z,12.37
2018-04-10T02:17:25.676Z,9.10
2018-04-10T02:19:53.133Z,11.23
2018-04-10T02:22:21.452Z,10.73
2018-04-10T02:24:48.912Z,12.33
2018-04-10T02:27:16.355Z,10.90
2018-04-10T02:29:44.589Z,10.67
2018-04-10T02:32:12.036Z,9.87
2018-04-10T02:34:39.501Z,7.40
2018-04-10T02:37:06.943Z,10.43
2018-04-10T02:39:35.168Z,8.57
2018-04-10T02:42:02.625Z,6.77
2018-04-10T02:44:30.090Z,8.13
2018-04-10T02:46:57.540Z,6.30
2018-04-10T02:49:25.775Z,9.13
2018-04-10T02:51:53.226Z,8.07
2018-04-10T02:54:20.693Z,8.73
2018-04-10T02:56:48.144Z,10.00
2018-04-10T02:59:16.351Z,7.43
2018-04-10T03:01:43.812Z,8.97
2018-04-10T03:04:11.292Z,7.83
2018-04-10T03:06:38.759Z,10.17
2018-04-10T03:09:06.196Z,9.10
2018-04-10T03:11:34.481Z,9.63
2018-04-10T03:14:02.697Z,9.67
2018-04-10T03:16:30.165Z,7.70
2018-04-10T03:18:57.628Z,8.03
2018-04-10T03:21:25.080Z,7.93
2018-04-10T03:23:53.300Z,8.60
2018-04-10T03:26:20.765Z,9.27
2018-04-10T03:28:48.235Z,11.93
2018-04-10T03:31:15.706Z,11.43
2018-04-10T03:33:43.161Z,14.53
2018-04-10T03:36:10.624Z,9.47
2018-04-10T03:38:38.081Z,11.20
2018-04-10T03:41:06.318Z,9.20
2018-04-10T03:43:33.797Z,10.17
2018-04-10T03:46:01.260Z,9.57
2018-04-10T03:48:28.713Z,9.97
2018-04-10T03:50:56.170Z,11.00
2018-04-10T03:53:23.641Z,9.70
2018-04-10T03:55:51.109Z,10.53
2018-04-10T03:58:18.616Z,10.20
2018-04-10T04:00:46.191Z,8.87
2018-04-10T04:03:13.665Z,8.97
2018-04-10T04:05:41.119Z,8.13
2018-04-10T04:08:08.563Z,9.27
2018-04-10T04:10:36.017Z,8.67
2018-04-10T04:13:03.482Z,8.23
2018-04-10T04:15:30.936Z,10.27
2018-04-10T04:17:59.168Z,20.53
2018-04-10T04:20:39.224Z,16.83
2018-04-10T04:23:06.685Z,15.17
2018-04-10T04:25:34.140Z,11.60
2018-04-10T04:28:01.617Z,11.47
2018-04-10T04:30:29.055Z,13.40
2018-04-10T04:32:57.282Z,11.13
2018-04-10T04:35:24.736Z,11.77
2018-04-10T04:37:52.198Z,11.07
2018-04-10T04:40:19.717Z,11.13
2018-04-10T04:42:47.163Z,11.53
2018-04-10T04:45:14.631Z,12.77
2018-04-10T04:47:42.102Z,15.73
2018-04-10T04:50:09.552Z,13.17
2018-04-10T04:52:37.023Z,11.63
2018-04-10T04:55:04.480Z,16.37
2018-04-10T04:57:31.932Z,13.80
2018-04-10T05:00:00.166Z,13.03
2018-04-10T05:02:27.630Z,12.60
2018-04-10T05:04:55.106Z,14.33
2018-04-10T05:07:22.552Z,8.87
2018-04-10T05:09:50.022Z,10.30
2018-04-10T05:12:17.467Z,8.93
2018-04-10T05:14:45.705Z,12.10
2018-04-10T05:17:13.172Z,13.27
2018-04-10T05:19:40.654Z,12.37
2018-04-10T05:22:08.104Z,16.83
2018-04-10T05:24:35.564Z,10.93
2018-04-10T05:27:03.018Z,12.40
2018-04-10T05:29:30.491Z,12.97
2018-04-10T05:31:57.957Z,17.43
2018-04-10T05:34:25.467Z,11.83
2018-04-10T05:36:52.905Z,11.50
2018-04-10T05:39:20.382Z,12.97
2018-04-10T05:41:47.833Z,13.93
2018-04-10T05:44:15.341Z,13.97
2018-04-10T05:46:42.792Z,15.40
2018-04-10T05:49:10.268Z,11.40
2018-04-10T05:51:37.724Z,16.77
2018-04-10T05:54:05.193Z,15.73
2018-04-10T05:56:32.644Z,18.07
2018-04-10T05:59:00.122Z,16.90
2018-04-10T06:01:27.585Z,18.00
2018-04-10T06:03:55.099Z,15.10
2018-04-10T06:06:22.529Z,12.07
2018-04-10T06:08:50.016Z,17.97
2018-04-10T06:11:17.478Z,17.33
2018-04-10T06:13:44.962Z,13.87
2018-04-10T06:16:12.440Z,13.23
2018-04-10T06:18:39.895Z,12.07
2018-04-10T06:21:07.359Z,14.63
2018-04-10T06:23:34.820Z,16.10
2018-04-10T06:26:02.305Z,16.93
2018-04-10T06:28:29.766Z,18.60
2018-04-10T06:30:57.238Z,16.07
2018-04-10T06:33:24.698Z,14.77
2018-04-10T06:35:52.165Z,12.47
2018-04-10T06:38:19.631Z,14.00
2018-04-10T06:40:47.092Z,12.60
2018-04-10T06:43:14.543Z,10.70
2018-04-10T06:45:42.004Z,10.07
2018-04-10T06:48:10.233Z,13.53
2018-04-10T06:50:38.097Z,12.97
2018-04-10T06:53:05.540Z,12.90
2018-04-10T06:55:33.780Z,10.80
2018-04-10T06:58:01.240Z,13.00
2018-04-10T07:00:28.702Z,11.67
2018-04-10T07:02:56.152Z,14.53
2018-04-10T07:05:23.735Z,12.63
2018-04-10T07:07:51.183Z,10.63
2018-04-10T07:10:19.414Z,13.40
2018-04-10T07:12:46.868Z,12.50
2018-04-10T07:15:14.331Z,13.20
2018-04-10T07:17:41.979Z,11.63
2018-04-10T07:20:10.306Z,10.73
2018-04-10T07:22:37.765Z,10.43
2018-04-10T07:25:05.223Z,11.83
2018-04-10T07:27:32.693Z,12.13
2018-04-10T07:30:00.165Z,11.17
2018-04-10T07:32:27.742Z,10.63
2018-04-10T07:34:55.232Z,10.90
2018-04-10T07:37:22.698Z,8.93
2018-04-10T07:39:50.177Z,10.63
2018-04-10T07:42:17.664Z,12.80
2018-04-10T07:44:45.108Z,9.97
2018-04-10T07:47:12.575Z,9.23
2018-04-10T07:49:40.032Z,9.10
2018-04-10T07:52:07.494Z,11.13
2018-04-10T07:54:34.952Z,9.43
2018-04-10T07:57:02.415Z,10.40
2018-04-10T07:59:29.871Z,13.30
2018-04-10T08:01:58.102Z,10.93
2018-04-10T08:04:25.577Z,12.10
2018-04-10T08:06:53.034Z,12.47
2018-04-10T08:09:20.500Z,15.40
2018-04-10T08:11:47.954Z,11.67
2018-04-10T08:14:15.430Z,13.53
2018-04-10T08:16:42.902Z,12.43
2018-04-10T08:19:10.384Z,13.90
2018-04-10T08:21:37.826Z,11.33
2018-04-10T08:24:05.288Z,13.53
2018-04-10T08:26:32.762Z,12.73
2018-04-10T08:29:00.237Z,11.63
2018-04-10T08:31:27.687Z,13.10
2018-04-10T08:33:55.928Z,14.23
2018-04-10T08:36:23.393Z,13.60
2018-04-10T08:38:50.899Z,11.63
2018-04-10T08:41:19.132Z,15.27
2018-04-10T08:43:46.592Z,13.57
2018-04-10T08:46:14.067Z,10.80
2018-04-10T08:48:41.525Z,11.07
2018-04-10T08:51:09.003Z,11.47
2018-04-10T08:53:36.458Z,12.03
2018-04-10T08:56:03.925Z,14.20
2018-04-10T08:58:31.381Z,13.80
2018-04-10T09:00:59.604Z,15.50
2018-04-10T09:03:27.056Z,13.43
2018-04-10T09:05:54.524Z,12.13
2018-04-10T09:08:21.990Z,17.00
2018-04-10T09:10:49.461Z,13.03
2018-04-10T09:13:16.929Z,12.40
2018-04-10T09:15:44.411Z,11.07
2018-04-10T09:18:11.932Z,13.37
2018-04-10T09:20:40.180Z,11.40
2018-04-10T09:23:07.643Z,15.67
2018-04-10T09:25:35.125Z,11.97
2018-04-10T09:28:02.572Z,13.63
2018-04-10T09:30:30.080Z,11.93
2018-04-10T09:32:57.540Z,13.60
2018-04-10T09:35:25.000Z,17.10
2018-04-10T09:37:52.456Z,15.20
2018-04-10T09:40:19.931Z,14.80
2018-04-10T09:42:47.430Z,11.23
2018-04-10T09:45:14.888Z,16.77
2018-04-10T09:47:42.354Z,13.57
2018-04-10T09:50:09.873Z,13.47
2018-04-10T09:52:37.298Z,14.13
2018-04-10T09:55:04.770Z,11.47
2018-04-10T09:57:32.242Z,11.60
2018-04-10T09:59:59.734Z,15.10
2018-04-10T10:02:27.190Z,13.83
2018-04-10T10:04:54.665Z,14.30
2018-04-10T10:07:22.888Z,12.37
2018-04-10T10:09:50.378Z,13.50
2018-04-10T10:12:17.828Z,14.13
2018-04-10T10:14:45.319Z,13.90
2018-04-10T10:17:12.795Z,13.70
2018-04-10T10:19:40.241Z,13.60
2018-04-10T10:22:07.700Z,10.27
2018-04-10T10:24:35.928Z,16.13
2018-04-10T10:27:03.385Z,12.73
2018-04-10T10:29:30.902Z,13.17
2018-04-10T10:31:59.141Z,11.70
2018-04-10T10:34:26.604Z,11.60
2018-04-10T10:36:54.061Z,11.70
2018-04-10T10:39:21.508Z,14.20
2018-04-10T10:41:48.993Z,11.83
2018-04-10T10:44:16.452Z,12.37
2018-04-10T10:46:43.915Z,12.87
2018-04-10T10:49:11.382Z,11.80
2018-04-10T10:51:39.629Z,14.03
2018-04-10T10:54:07.076Z,10.00
2018-04-10T10:56:34.550Z,12.07
2018-04-10T10:59:02.027Z,12.27
2018-04-10T11:01:29.485Z,8.50
2018-04-10T11:03:56.964Z,12.73
2018-04-10T11:06:24.440Z,10.77
2018-04-10T11:08:51.924Z,6.97
2018-04-10T11:11:19.384Z,10.87
2018-04-10T11:13:46.836Z,10.33
2018-04-10T11:16:14.307Z,7.60
2018-04-10T11:18:41.769Z,10.57
2018-04-10T11:21:09.229Z,10.10
2018-04-10T11:23:36.706Z,7.80
2018-04-10T11:26:04.158Z,7.37
2018-04-10T11:28:31.614Z,10.67
2018-04-10T11:30:59.845Z,9.33
2018-04-10T11:33:27.302Z,9.03
2018-04-10T11:35:54.756Z,8.70
2018-04-10T11:38:22.204Z,8.20
2018-04-10T11:40:50.432Z,6.77
2018-04-10T11:43:17.886Z,7.77
2018-04-10T11:45:45.389Z,7.03
2018-04-10T11:48:13.640Z,6.37
2018-04-10T11:50:41.102Z,8.47
2018-04-10T11:53:08.548Z,5.87
2018-04-10T11:55:36.785Z,3.53
2018-04-10T11:58:04.275Z,3.33
2018-04-10T12:00:31.747Z,3.00
2018-04-10T12:02:59.185Z,3.10
2018-04-10T12:05:26.649Z,3.07
2018-04-10T12:07:54.102Z,3.97
2018-04-10T12:10:21.589Z,5.60
2018-04-10T12:12:49.020Z,5.63
2018-04-10T12:15:17.254Z,4.60
2018-04-10T12:17:44.695Z,4.23
2018-04-10T12:20:12.196Z,3.30
2018-04-10T12:22:39.636Z,4.87
2018-04-10T12:25:07.097Z,6.27
2018-04-10T12:27:34.545Z,5.37
2018-04-10T12:30:02.038Z,5.75
2018-04-10T12:32:29.472Z,4.57
2018-04-10T12:34:57.009Z,7.20
2018-04-10T12:37:24.376Z,5.57
2018-04-10T12:39:51.961Z,6.00
2018-04-10T12:42:19.419Z,8.40
2018-04-10T12:44:46.876Z,5.83
2018-04-10T12:47:14.355Z,6.20
2018-04-10T12:49:41.782Z,6.00
2018-04-10T12:52:09.245Z,6.83
2018-04-10T12:54:37.459Z,6.60
2018-04-10T12:57:05.019Z,6.30
2018-04-10T12:59:33.216Z,7.13
2018-04-10T13:02:00.672Z,5.90
2018-04-10T13:04:28.122Z,6.53
2018-04-10T13:06:56.350Z,7.80
2018-04-10T13:09:23.807Z,7.20
2018-04-10T13:11:51.278Z,6.37
2018-04-10T13:14:18.730Z,7.50
2018-04-10T13:16:46.205Z,5.03
2018-04-10T13:19:13.655Z,4.93
2018-04-10T13:21:41.899Z,5.70
2018-04-10T13:24:09.473Z,6.70
2018-04-10T13:26:36.951Z,4.77
2018-04-10T13:29:04.386Z,5.60
2018-04-10T13:31:31.844Z,6.83
2018-04-10T13:33:59.289Z,6.10
2018-04-10T13:36:27.511Z,5.20
2018-04-10T13:38:54.959Z,6.30
2018-04-10T13:41:22.412Z,4.43
2018-04-10T13:43:49.864Z,5.53
2018-04-10T13:46:18.097Z,4.73
2018-04-10T13:48:45.549Z,6.60
2018-04-10T13:51:13.037Z,6.97
2018-04-10T13:53:40.478Z,4.73
2018-04-10T13:56:08.715Z,5.23
2018-04-10T13:58:36.145Z,5.00
2018-04-10T14:01:03.607Z,4.50
2018-04-10T14:03:31.053Z,4.07
2018-04-10T14:05:58.512Z,5.77
2018-04-10T14:08:26.064Z,4.73
2018-04-10T14:10:53.514Z,5.50
2018-04-10T14:13:20.960Z,5.37
2018-04-10T14:15:48.441Z,8.90
2018-04-10T14:18:15.913Z,5.23
2018-04-10T14:20:43.372Z,3.83
2018-04-10T14:23:10.824Z,6.17
2018-04-10T14:25:38.285Z,5.63
2018-04-10T14:28:06.532Z,4.27
2018-04-10T14:30:33.995Z,3.90
2018-04-10T14:33:01.450Z,4.63
2018-04-10T14:35:28.908Z,3.43
2018-04-10T14:37:56.364Z,2.63
2018-04-10T14:40:23.846Z,2.43
2018-04-10T14:42:51.288Z,4.50
2018-04-10T14:45:19.503Z,4.53
2018-04-10T14:47:46.981Z,4.30
2018-04-10T14:50:14.446Z,4.70
2018-04-10T14:52:41.897Z,3.47
2018-04-10T14:55:09.396Z,5.23
2018-04-10T14:57:36.864Z,6.30
2018-04-10T15:00:04.312Z,3.70
2018-04-10T15:02:31.782Z,4.10
2018-04-10T15:04:59.227Z,5.17
2018-04-10T15:07:27.532Z,6.90
2018-04-10T15:09:55.728Z,6.13
2018-04-10T15:12:23.191Z,3.97
2018-04-10T15:14:50.646Z,6.73
2018-04-10T15:17:18.860Z,3.83
2018-04-10T15:19:46.306Z,5.67
2018-04-10T15:22:13.768Z,5.57
2018-04-10T15:24:41.208Z,5.20
2018-04-10T15:27:08.669Z,5.57
2018-04-10T15:29:36.120Z,5.03
2018-04-10T15:32:03.572Z,4.10
2018-04-10T15:34:31.045Z,4.50
2018-04-10T15:36:58.607Z,2.93
2018-04-10T15:39:26.047Z,7.57
2018-04-10T15:41:54.268Z,3.73
2018-04-10T15:44:21.712Z,4.97
2018-04-10T15:46:49.171Z,4.47
2018-04-10T15:49:17.388Z,4.93
2018-04-10T15:51:44.845Z,5.40
2018-04-10T15:54:12.328Z,6.07
2018-04-10T15:56:39.773Z,4.20
2018-04-10T15:59:07.232Z,5.30
2018-04-10T16:01:35.448Z,7.03
2018-04-10T16:04:02.912Z,5.10
2018-04-10T16:06:30.366Z,4.57
2018-04-10T16:08:57.827Z,4.10
2018-04-10T16:11:25.301Z,4.70
2018-04-10T16:13:53.529Z,3.83
2018-04-10T16:16:20.981Z,4.40
2018-04-10T16:18:48.452Z,3.53
2018-04-10T16:21:15.901Z,4.27
2018-04-10T16:23:43.366Z,5.23
2018-04-10T16:26:10.822Z,3.33
2018-04-10T16:28:39.044Z,5.07
2018-04-10T16:31:06.488Z,3.53
2018-04-10T16:33:33.948Z,5.73
2018-04-10T16:36:02.159Z,4.33
2018-04-10T16:38:29.626Z,4.40
2018-04-10T16:40:57.081Z,5.17
2018-04-10T16:43:24.541Z,4.93
2018-04-10T16:45:52.769Z,6.33
2018-04-10T16:48:20.241Z,5.70
2018-04-10T16:50:47.685Z,3.70
2018-04-10T16:53:15.186Z,4.70
2018-04-10T16:55:42.638Z,4.50
2018-04-10T16:58:10.082Z,4.57
2018-04-10T17:00:37.549Z,5.10
2018-04-10T17:03:04.996Z,3.20
2018-04-10T17:05:33.232Z,5.83
2018-04-10T17:08:00.680Z,2.40
2018-04-10T17:10:28.135Z,2.33
2018-04-10T17:12:56.358Z,4.77
2018-04-10T17:15:23.811Z,3.73
2018-04-10T17:17:51.276Z,2.13
2018-04-10T17:20:18.738Z,2.87
2018-04-10T17:22:46.185Z,4.60
2018-04-10T17:25:14.404Z,5.47
2018-04-10T17:27:41.894Z,3.57
2018-04-10T17:30:10.094Z,5.90
2018-04-10T17:32:37.544Z,3.60
2018-04-10T17:35:05.021Z,4.70
2018-04-10T17:37:32.459Z,4.43
2018-04-10T17:39:59.943Z,4.07
2018-04-10T17:42:27.388Z,5.23
2018-04-10T17:44:54.848Z,2.87
2018-04-10T17:47:23.119Z,4.17
2018-04-10T17:49:50.626Z,5.63
2018-04-10T17:52:18.116Z,4.17
2018-04-10T17:54:45.607Z,3.10
2018-04-10T17:57:13.088Z,2.40
2018-04-10T17:59:42.078Z,2.70
2018-04-10T18:02:10.312Z,3.33
2018-04-10T18:04:38.537Z,4.27
2018-04-10T18:07:06.003Z,3.70
2018-04-10T18:09:33.440Z,3.20
2018-04-10T18:12:00.928Z,4.47
2018-04-10T18:14:28.372Z,2.03
2018-04-10T18:16:56.601Z,3.07
2018-04-10T18:19:24.049Z,1.83
2018-04-10T18:21:51.526Z,3.73
2018-04-10T18:24:18.988Z,2.00
2018-04-10T18:26:46.449Z,2.17
2018-04-10T18:29:13.919Z,2.17
2018-04-10T18:31:41.406Z,1.83
2018-04-10T18:34:08.856Z,1.67
2018-04-10T18:36:36.312Z,1.30
2018-04-10T18:39:05.466Z,2.63
2018-04-10T18:41:32.940Z,1.80
2018-04-10T18:44:00.472Z,2.43
2018-04-10T18:46:27.937Z,3.10
2018-04-10T18:48:55.395Z,2.17
2018-04-10T18:51:23.616Z,1.40
2018-04-10T18:53:51.068Z,2.10
2018-04-10T18:56:18.515Z,1.43
2018-04-10T18:58:46.740Z,1.57
2018-04-10T19:01:14.229Z,1.30
2018-04-10T19:03:41.685Z,1.40
2018-04-10T19:06:09.131Z,1.50
2018-04-10T19:08:36.607Z,2.07
2018-04-10T19:11:04.067Z,1.50
2018-04-10T19:13:31.526Z,1.83
2018-04-10T19:15:58.985Z,1.30
2018-04-10T19:18:27.221Z,1.60
2018-04-10T19:20:54.671Z,1.20
2018-04-10T19:23:22.141Z,1.80
2018-04-10T19:25:49.598Z,2.53
2018-04-10T19:28:17.063Z,2.03
2018-04-10T19:30:44.513Z,1.53
2018-04-10T19:33:12.736Z,2.50
2018-04-10T19:35:40.184Z,2.27
2018-04-10T19:38:08.404Z,1.40
2018-04-10T19:40:37.738Z,2.03
2018-04-10T19:43:05.193Z,1.33
2018-04-10T19:45:32.709Z,44.80
2018-04-10T19:48:00.117Z,6.13
2018-04-10T19:50:27.577Z,3.83
2018-04-10T19:52:55.052Z,2.47
2018-04-10T19:55:22.608Z,2.37
2018-04-10T19:57:50.854Z,1.57
2018-04-10T20:00:18.304Z,1.53
2018-04-10T20:02:45.758Z,1.23
2018-04-10T20:05:13.224Z,1.40
2018-04-10T20:07:40.679Z,1.87
2018-04-10T20:10:08.166Z,3.33
2018-04-10T20:12:35.648Z,1.80
2018-04-10T20:15:03.118Z,1.70
2018-04-10T20:17:30.565Z,2.17
2018-04-10T20:19:58.025Z,1.87
2018-04-10T20:22:25.471Z,1.73
2018-04-10T20:24:52.936Z,1.90
2018-04-10T20:27:21.207Z,2.53
2018-04-10T20:29:48.604Z,1.20
2018-04-10T20:32:16.066Z,1.30
2018-04-10T20:34:43.512Z,2.37
2018-04-10T20:37:10.985Z,2.70
2018-04-10T20:39:38.428Z,1.50
2018-04-10T20:42:05.973Z,2.90
2018-04-10T20:44:33.420Z,1.50
2018-04-10T20:47:00.887Z,1.70
2018-04-10T20:49:28.339Z,1.93
2018-04-10T20:51:56.565Z,2.30
2018-04-10T20:54:24.008Z,2.47
2018-04-10T20:56:51.481Z,1.60
2018-04-10T20:59:18.924Z,1.50
2018-04-10T21:01:47.161Z,1.63
2018-04-10T21:04:14.632Z,1.70
2018-04-10T21:06:42.096Z,2.53
2018-04-10T21:09:09.556Z,1.93
2018-04-10T21:11:37.016Z,2.43
2018-04-10T21:14:04.456Z,2.10
2018-04-10T21:16:32.697Z,3.33
2018-04-10T21:19:00.137Z,2.10
2018-04-10T21:21:27.607Z,2.83
2018-04-10T21:23:55.060Z,2.57
2018-04-10T21:26:23.272Z,2.30
2018-04-10T21:28:50.746Z,2.27
2018-04-10T21:31:18.191Z,3.57
2018-04-10T21:33:45.657Z,3.20
2018-04-10T21:36:13.872Z,3.37
2018-04-10T21:38:41.333Z,1.43
2018-04-10T21:41:08.785Z,3.27
2018-04-10T21:43:36.266Z,1.83
2018-04-10T21:46:03.711Z,2.40
2018-04-10T21:48:31.940Z,2.90
2018-04-10T21:50:59.416Z,16.50
2018-04-10T21:53:26.885Z,3.27
2018-04-10T21:55:54.345Z,4.17
2018-04-10T21:58:21.810Z,3.83
2018-04-10T22:00:49.252Z,1.80
2018-04-10T22:03:16.713Z,2.80
2018-04-10T22:05:44.920Z,3.20
2018-04-10T22:08:12.386Z,2.87
2018-04-10T22:10:39.980Z,3.23
2018-04-10T22:13:07.436Z,4.03
2018-04-10T22:15:34.901Z,4.57
2018-04-10T22:18:02.369Z,2.23
2018-04-10T22:20:29.827Z,3.40
2018-04-10T22:22:57.276Z,4.13
2018-04-10T22:25:25.585Z,4.50
2018-04-10T22:27:53.801Z,3.23
2018-04-10T22:30:21.269Z,5.13
2018-04-10T22:32:48.686Z,4.60
2018-04-10T22:35:16.240Z,4.47
2018-04-10T22:37:43.657Z,4.37
2018-04-10T22:40:11.117Z,5.57
2018-04-10T22:42:38.573Z,4.90
2018-04-10T22:45:06.032Z,6.27
2018-04-10T22:47:33.471Z,6.07
2018-04-10T22:50:01.724Z,7.83
2018-04-10T22:52:29.148Z,6.00
2018-04-10T22:54:56.619Z,5.43
2018-04-10T22:57:24.068Z,7.47
2018-04-10T22:59:52.316Z,6.50
2018-04-10T23:02:19.758Z,6.53
2018-04-10T23:04:47.221Z,6.47
2018-04-10T23:07:14.710Z,7.33
2018-04-10T23:09:42.249Z,6.47
2018-04-10T23:12:10.476Z,5.10
2018-04-10T23:14:37.941Z,4.57
2018-04-10T23:17:05.413Z,5.20
2018-04-10T23:19:32.870Z,4.43
2018-04-10T23:22:00.341Z,5.20
2018-04-10T23:24:27.793Z,5.03
2018-04-10T23:26:56.033Z,4.57
2018-04-10T23:29:23.484Z,4.87
2018-04-10T23:31:50.956Z,4.23
2018-04-10T23:34:18.413Z,5.03
2018-04-10T23:36:45.873Z,4.37
2018-04-10T23:39:14.116Z,4.50
2018-04-10T23:41:41.594Z,4.30
2018-04-10T23:44:09.058Z,4.80
2018-04-10T23:46:36.530Z,7.63
2018-04-10T23:49:03.986Z,4.53
2018-04-10T23:51:31.449Z,4.47
2018-04-10T23:53:58.917Z,4.27
2018-04-10T23:56:26.361Z,4.27
2018-04-10T23:58:53.820Z,4.17
